Terminal Aerodrome Forecast
Issued by NWS Upton, NY

Home | Current Version | Previous Version | Text Only | Print | Product List | Glossary On
Versions: 1 2 3 4 5 6 7 8 9 10 11 12 13 14 15 16 17 18 19 20 21 22 23 24 25 26 27 28
000
FTUS41 KOKX 282000 AAA
TAFLGA
TAF AMD
KLGA 282030Z 2821/2918 33013G21KT P6SM FEW050 SCT150
     FM282200 33012KT P6SM FEW050 FEW150
     FM290100 35010KT P6SM SKC
     FM290600 01007KT P6SM SKC
     FM291200 VRB04KT P6SM FEW150=

USA.gov is the U.S. government's official web portal to all federal, state and local government web resources and services.